Rosebloom, Mississippi
Current Conditions -  °F | °C
As of 4:53 AM on Friday 24 Oct 2014 (Local Time) from KGWO Reporting Station
Haze Haze  
Wind Chill: 46°   Ceiling: Unl
Heat Index: 46°   Visibility: 3mi
Dew Point: 45°   Wind: 3mph
Humidity: 96%   Direction: 230°SW
Pressure: 30.13"   Gusts: NA
Location:  33.8947°N, 90.0323°W
Report Text: KGWO 240953Z AUTO 23003KT 3SM BR CLR 08/07 A3013 RMK AO2 SLP202 T00780072 TSNO
Loading
Personal Weather Stations






























Interactive Weather Map New forecast layout! Learn more

10-Day Weather Forecast

Advertisements
Track Severe Weather on mobile